Time;durP1;ratioP1;P1;durP2;ratioP2;P2;SDS_P1;SDS_P2;PMS_P1;PMS_P2;Temp;Humidity;BMP_temperature;BMP_pressure;BME280_temperature;BME280_humidity;BME280_pressure;Samples;Min_cycle;Max_cycle;Signal;HPM_P1;HPM_P2
2023/03/29 00:01:44;;;;;;;38.20;15.40;;;;;;;-128.00;-1.00;-1.00;102413;1257;1005920;-80
2023/03/29 00:04:12;;;;;;;30.80;12.80;;;;;;;-128.00;-1.00;-1.00;102446;1256;1005062;-80
2023/03/29 00:06:40;;;;;;;26.10;14.10;;;;;;;-128.00;-1.00;-1.00;102439;1261;1059015;-80
2023/03/29 00:09:08;;;;;;;19.20;10.60;;;;;;;-128.00;-1.00;-1.00;102325;1256;1003981;-80
2023/03/29 00:11:35;;;;;;;27.40;11.90;;;;;;;-128.00;-1.00;-1.00;102439;1257;1006003;-79
2023/03/29 00:14:02;;;;;;;27.40;14.20;;;;;;;-128.00;-1.00;-1.00;102426;1257;1004518;-78
2023/03/29 00:16:28;;;;;;;24.10;13.10;;;;;;;-128.00;-1.00;-1.00;102446;1261;1004154;-79
2023/03/29 00:18:54;;;;;;;26.00;12.70;;;;;;;-128.00;-1.00;-1.00;102461;1256;1003956;-79
2023/03/29 00:21:21;;;;;;;20.70;12.00;;;;;;;-128.00;-1.00;-1.00;102510;1256;1005226;-78
2023/03/29 00:23:47;;;;;;;21.40;10.40;;;;;;;-128.00;-1.00;-1.00;102470;1256;1005637;-78
2023/03/29 00:26:13;;;;;;;21.20;11.00;;;;;;;-128.00;-1.00;-1.00;102420;1256;1004923;-78
2023/03/29 00:28:40;;;;;;;20.80;12.50;;;;;;;-128.00;-1.00;-1.00;102482;1259;1005506;-80
2023/03/29 00:31:11;;;;;;;22.30;10.50;;;;;;;-128.00;-1.00;-1.00;102473;1257;1046241;-78
2023/03/29 00:33:38;;;;;;;21.20;12.00;;;;;;;-128.00;-1.00;-1.00;105432;1256;1047320;-79
2023/03/29 00:36:05;;;;;;;15.90;9.70;;;;;;;-128.00;-1.00;-1.00;105397;1256;1003970;-79
2023/03/29 00:38:32;;;;;;;13.50;8.10;;;;;;;-128.00;-1.00;-1.00;105410;1256;1004382;-79
2023/03/29 00:40:58;;;;;;;17.00;8.90;;;;;;;-128.00;-1.00;-1.00;105386;1256;1003617;-80
2023/03/29 00:43:24;;;;;;;24.70;9.90;;;;;;;-128.00;-1.00;-1.00;105379;1256;1005472;-79
2023/03/29 00:45:51;;;;;;;25.30;11.20;;;;;;;-128.00;-1.00;-1.00;105411;1255;1004224;-79
2023/03/29 00:48:20;;;;;;;22.00;12.00;;;;;;;-128.00;-1.00;-1.00;105422;1256;1004688;-81
2023/03/29 00:50:55;;;;;;;22.20;12.00;;;;;;;-128.00;-1.00;-1.00;105208;1257;1057475;-79
2023/03/29 00:53:26;;;;;;;15.10;8.70;;;;;;;-128.00;-1.00;-1.00;105197;1258;1058785;-81
2023/03/29 00:56:15;;;;;;;21.90;10.80;;;;;;;-128.00;-1.00;-1.00;105322;1256;1046241;-79
2023/03/29 00:58:46;;;;;;;22.60;11.00;;;;;;;-128.00;-1.00;-1.00;103562;1265;1047534;-81
2023/03/29 01:01:16;;;;;;;20.60;11.20;;;;;;;-128.00;-1.00;-1.00;102238;1257;1063727;-80
2023/03/29 01:03:45;;;;;;;20.50;10.60;;;;;;;-128.00;-1.00;-1.00;105375;1256;1059007;-81
2023/03/29 01:06:13;;;;;;;22.60;12.00;;;;;;;-128.00;-1.00;-1.00;105330;1256;1059502;-79
2023/03/29 01:08:43;;;;;;;24.10;12.80;;;;;;;-128.00;-1.00;-1.00;103694;1256;1004492;-80
2023/03/29 01:11:21;;;;;;;28.30;14.10;;;;;;;-128.00;-1.00;-1.00;102559;1261;1046751;-81
2023/03/29 01:13:50;;;;;;;23.90;13.50;;;;;;;-128.00;-1.00;-1.00;105364;1256;1062371;-81
2023/03/29 01:16:18;;;;;;;23.90;11.90;;;;;;;-128.00;-1.00;-1.00;105227;1256;1058090;-81
2023/03/29 01:18:45;;;;;;;26.60;14.20;;;;;;;-128.00;-1.00;-1.00;105217;1257;1004573;-79
2023/03/29 01:21:23;;;;;;;31.10;15.20;;;;;;;-128.00;-1.00;-1.00;105254;1255;1004505;-79
2023/03/29 01:24:05;;;;;;;27.50;14.30;;;;;;;-128.00;-1.00;-1.00;105237;1257;1046048;-81
2023/03/29 01:26:42;;;;;;;24.30;13.80;;;;;;;-128.00;-1.00;-1.00;105255;1257;1062473;-81
2023/03/29 01:29:12;;;;;;;23.70;13.20;;;;;;;-128.00;-1.00;-1.00;105237;1256;1059126;-81
2023/03/29 01:31:41;;;;;;;23.50;13.70;;;;;;;-128.00;-1.00;-1.00;105195;1255;1061095;-79
2023/03/29 01:34:09;;;;;;;;;;;;;;;-128.00;-1.00;-1.00;105259;1258;1046821;-80
2023/03/29 01:36:39;;;;;;;23.00;13.10;;;;;;;-128.00;-1.00;-1.00;105387;1256;1004366;-79
2023/03/29 01:39:05;;;;;;;19.60;13.30;;;;;;;-128.00;-1.00;-1.00;105214;1256;1061078;-80
2023/03/29 01:41:48;;;;;;;22.50;12.50;;;;;;;-128.00;-1.00;-1.00;105351;1256;1004699;-79
2023/03/29 01:44:37;;;;;;;20.20;11.40;;;;;;;-128.00;-1.00;-1.00;105178;1256;1059530;-79
2023/03/29 01:47:29;;;;;;;21.50;11.90;;;;;;;-128.00;-1.00;-1.00;105219;1256;1046634;-79
2023/03/29 01:50:06;;;;;;;24.20;12.10;;;;;;;-128.00;-1.00;-1.00;105055;1256;1046868;-81
2023/03/29 01:52:35;;;;;;;24.90;13.70;;;;;;;-128.00;-1.00;-1.00;105214;1256;1062060;-76
2023/03/29 01:55:07;;;;;;;19.60;11.20;;;;;;;-128.00;-1.00;-1.00;103841;1261;1059323;-80
2023/03/29 01:57:33;;;;;;;23.90;12.50;;;;;;;-128.00;-1.00;-1.00;105344;1256;1058612;-79
2023/03/29 01:59:59;;;;;;;22.70;11.70;;;;;;;-128.00;-1.00;-1.00;105336;1256;1006198;-80
2023/03/29 02:02:26;;;;;;;17.70;10.70;;;;;;;-128.00;-1.00;-1.00;105136;1256;1005118;-80
2023/03/29 02:04:53;;;;;;;21.40;12.20;;;;;;;-128.00;-1.00;-1.00;105204;1256;1003423;-80
2023/03/29 02:07:21;;;;;;;23.50;12.50;;;;;;;-128.00;-1.00;-1.00;105335;1259;1005408;-81
2023/03/29 02:09:48;;;;;;;20.10;11.20;;;;;;;-128.00;-1.00;-1.00;102975;1256;1004481;-78
2023/03/29 02:12:14;;;;;;;26.30;13.60;;;;;;;-128.00;-1.00;-1.00;102159;1257;1003999;-80
2023/03/29 02:14:41;;;;;;;30.50;14.00;;;;;;;-128.00;-1.00;-1.00;102377;1257;1005113;-81
2023/03/29 02:17:19;;;;;;;18.70;10.50;;;;;;;-128.00;-1.00;-1.00;102513;1257;1004457;-77
2023/03/29 02:19:48;;;;;;;23.10;12.20;;;;;;;-128.00;-1.00;-1.00;102474;1257;1061383;-79
2023/03/29 02:22:16;;;;;;;24.10;12.70;;;;;;;-128.00;-1.00;-1.00;105390;1257;1059456;-80
2023/03/29 02:24:43;;;;;;;27.10;14.00;;;;;;;-128.00;-1.00;-1.00;105237;1256;1005731;-79
2023/03/29 02:27:10;;;;;;;20.80;12.30;;;;;;;-128.00;-1.00;-1.00;105411;1256;1004344;-78
2023/03/29 02:29:36;;;;;;;26.90;12.60;;;;;;;-128.00;-1.00;-1.00;102957;1256;1004159;-78
2023/03/29 02:32:10;;;;;;;31.60;13.00;;;;;;;-128.00;-1.00;-1.00;102344;1256;1004532;-78
2023/03/29 02:34:39;;;;;;;22.70;11.80;;;;;;;-128.00;-1.00;-1.00;105254;1256;1059568;-80
2023/03/29 02:37:07;;;;;;;;;;;;;;;-128.00;-1.00;-1.00;105221;1257;1047694;-80
2023/03/29 02:39:33;;;;;;;19.10;9.00;;;;;;;-128.00;-1.00;-1.00;105223;1256;1004616;-77
2023/03/29 02:41:59;;;;;;;22.90;12.80;;;;;;;-128.00;-1.00;-1.00;105246;1256;1004521;-78
2023/03/29 02:44:27;;;;;;;25.30;12.20;;;;;;;-128.00;-1.00;-1.00;105234;1256;1003914;-78
2023/03/29 02:46:59;;;;;;;23.50;11.90;;;;;;;-128.00;-1.00;-1.00;105238;1256;1004473;-78
2023/03/29 02:49:25;;;;;;;19.10;10.90;;;;;;;-128.00;-1.00;-1.00;105183;1256;1045669;-78
2023/03/29 02:51:53;;;;;;;29.30;14.20;;;;;;;-128.00;-1.00;-1.00;105352;1256;1004397;-78
2023/03/29 02:54:20;;;;;;;33.10;17.80;;;;;;;-128.00;-1.00;-1.00;105190;1257;1004833;-77
2023/03/29 02:56:48;;;;;;;31.20;15.30;;;;;;;-128.00;-1.00;-1.00;102444;1258;1004849;-80
2023/03/29 02:59:16;;;;;;;30.50;14.50;;;;;;;-128.00;-1.00;-1.00;102416;1257;1004817;-77
2023/03/29 03:01:42;;;;;;;28.90;16.10;;;;;;;-128.00;-1.00;-1.00;102419;1257;1005530;-77
2023/03/29 03:04:09;;;;;;;28.10;13.50;;;;;;;-128.00;-1.00;-1.00;104517;1256;1004412;-79
2023/03/29 03:06:36;;;;;;;31.50;15.50;;;;;;;-128.00;-1.00;-1.00;105337;1256;1003508;-79
2023/03/29 03:09:04;;;;;;;30.90;16.30;;;;;;;-128.00;-1.00;-1.00;105318;1257;1003969;-77
2023/03/29 03:11:31;;;;;;;29.00;16.00;;;;;;;-128.00;-1.00;-1.00;105175;1256;1004180;-78
2023/03/29 03:13:58;;;;;;;31.40;15.00;;;;;;;-128.00;-1.00;-1.00;105320;1256;1003900;-79
2023/03/29 03:16:25;;;;;;;27.20;14.20;;;;;;;-128.00;-1.00;-1.00;105335;1256;1004319;-77
2023/03/29 03:18:52;;;;;;;27.40;12.40;;;;;;;-128.00;-1.00;-1.00;105362;1256;1003974;-79
2023/03/29 03:21:19;;;;;;;11.90;6.40;;;;;;;-128.00;-1.00;-1.00;105367;1256;1004550;-79
2023/03/29 03:23:46;;;;;;;30.40;15.20;;;;;;;-128.00;-1.00;-1.00;105391;1255;1004127;-79
2023/03/29 03:26:12;;;;;;;32.40;16.10;;;;;;;-128.00;-1.00;-1.00;105394;1256;1005010;-78
2023/03/29 03:28:39;;;;;;;26.90;14.10;;;;;;;-128.00;-1.00;-1.00;105419;1257;1004192;-80
2023/03/29 03:31:05;;;;;;;29.80;16.10;;;;;;;-128.00;-1.00;-1.00;105405;1256;1004736;-77
2023/03/29 03:33:32;;;;;;;29.60;17.00;;;;;;;-128.00;-1.00;-1.00;105395;1257;1005133;-77
2023/03/29 03:36:04;;;;;;;30.30;15.10;;;;;;;-128.00;-1.00;-1.00;102985;1261;1003916;-77
2023/03/29 03:38:31;;;;;;;43.70;20.80;;;;;;;-128.00;-1.00;-1.00;102457;1260;1048135;-78
2023/03/29 03:40:58;;;;;;;39.60;19.50;;;;;;;-128.00;-1.00;-1.00;105405;1256;1003328;-77
2023/03/29 03:43:25;;;;;;;28.90;16.60;;;;;;;-128.00;-1.00;-1.00;105398;1257;1006009;-77
2023/03/29 03:45:51;;;;;;;29.40;13.90;;;;;;;-128.00;-1.00;-1.00;105385;1256;1004199;-79
2023/03/29 03:48:17;;;;;;;24.70;12.40;;;;;;;-128.00;-1.00;-1.00;105382;1257;1004693;-79
2023/03/29 03:50:48;;;;;;;29.00;16.60;;;;;;;-128.00;-1.00;-1.00;105370;1257;1005906;-78
2023/03/29 03:53:14;;;;;;;26.80;14.60;;;;;;;-128.00;-1.00;-1.00;102527;1261;1047044;-77
2023/03/29 03:55:41;;;;;;;29.00;16.40;;;;;;;-128.00;-1.00;-1.00;102442;1262;1004210;-77
2023/03/29 03:58:08;;;;;;;27.50;14.50;;;;;;;-128.00;-1.00;-1.00;102436;1262;1004441;-79
2023/03/29 04:00:34;;;;;;;33.30;17.60;;;;;;;-128.00;-1.00;-1.00;102446;1262;1004552;-78
2023/03/29 04:03:01;;;;;;;33.60;16.90;;;;;;;-128.00;-1.00;-1.00;102366;1263;1005399;-79
2023/03/29 04:05:27;;;;;;;30.30;15.30;;;;;;;-128.00;-1.00;-1.00;102437;1262;1004227;-77
2023/03/29 04:07:54;;;;;;;38.90;17.80;;;;;;;-128.00;-1.00;-1.00;102468;1257;1004318;-78
2023/03/29 04:10:21;;;;;;;18.10;9.90;;;;;;;-128.00;-1.00;-1.00;102434;1267;1004651;-79
2023/03/29 04:12:47;;;;;;;25.00;12.00;;;;;;;-128.00;-1.00;-1.00;102162;1263;1005039;-77
2023/03/29 04:15:16;;;;;;;33.10;17.40;;;;;;;-128.00;-1.00;-1.00;102229;1256;1006055;-78
2023/03/29 04:17:43;;;;;;;28.50;12.00;;;;;;;-128.00;-1.00;-1.00;102406;1262;1049599;-77
2023/03/29 04:20:11;;;;;;;29.30;15.60;;;;;;;-128.00;-1.00;-1.00;102420;1257;1003868;-78
2023/03/29 04:22:38;;;;;;;24.80;12.40;;;;;;;-128.00;-1.00;-1.00;102475;1260;1004857;-77
2023/03/29 04:25:05;;;;;;;28.50;13.80;;;;;;;-128.00;-1.00;-1.00;102366;1258;1004812;-77
2023/03/29 04:27:31;;;;;;;28.20;14.10;;;;;;;-128.00;-1.00;-1.00;104148;1259;1004694;-79
2023/03/29 04:29:58;;;;;;;29.20;16.40;;;;;;;-128.00;-1.00;-1.00;105355;1259;1004364;-79
2023/03/29 04:32:24;;;;;;;16.70;10.30;;;;;;;-128.00;-1.00;-1.00;102480;1260;1005281;-77
2023/03/29 04:34:51;;;;;;;29.60;14.50;;;;;;;-128.00;-1.00;-1.00;103920;1260;1004852;-80
2023/03/29 04:37:20;;;;;;;38.60;17.60;;;;;;;-128.00;-1.00;-1.00;102526;1262;1004753;-77
2023/03/29 04:39:48;;;;;;;19.50;10.10;;;;;;;-128.00;-1.00;-1.00;102431;1257;1046564;-79
2023/03/29 04:42:15;;;;;;;35.20;18.40;;;;;;;-128.00;-1.00;-1.00;102391;1264;1005378;-78
2023/03/29 04:44:42;;;;;;;33.80;15.90;;;;;;;-128.00;-1.00;-1.00;102433;1257;1004781;-79
2023/03/29 04:47:12;;;;;;;37.50;17.80;;;;;;;-128.00;-1.00;-1.00;102476;1262;1003600;-80
2023/03/29 04:49:39;;;;;;;21.60;12.20;;;;;;;-128.00;-1.00;-1.00;102463;1257;1061582;-79
2023/03/29 04:52:06;;;;;;;34.90;15.90;;;;;;;-128.00;-1.00;-1.00;102421;1260;1004391;-78
2023/03/29 04:54:33;;;;;;;25.10;13.60;;;;;;;-128.00;-1.00;-1.00;102129;1263;1005376;-78
2023/03/29 04:56:59;;;;;;;34.40;17.60;;;;;;;-128.00;-1.00;-1.00;102409;1258;1004806;-79
2023/03/29 04:59:25;;;;;;;57.70;25.70;;;;;;;-128.00;-1.00;-1.00;102344;1263;1004582;-78
2023/03/29 05:01:53;;;;;;;28.30;14.00;;;;;;;-128.00;-1.00;-1.00;102402;1263;1004355;-79
2023/03/29 05:04:19;;;;;;;36.40;17.20;;;;;;;-128.00;-1.00;-1.00;102384;1263;1004481;-79
2023/03/29 05:06:46;;;;;;;49.80;25.30;;;;;;;-128.00;-1.00;-1.00;102455;1262;1006569;-78
2023/03/29 05:09:12;;;;;;;25.60;13.00;;;;;;;-128.00;-1.00;-1.00;102486;1261;1004263;-78
2023/03/29 05:11:39;;;;;;;20.30;12.40;;;;;;;-128.00;-1.00;-1.00;102486;1262;1004720;-80
2023/03/29 05:14:06;;;;;;;27.80;14.40;;;;;;;-128.00;-1.00;-1.00;102453;1263;1004664;-80
2023/03/29 05:16:33;;;;;;;51.60;26.20;;;;;;;-128.00;-1.00;-1.00;102346;1260;1005154;-78
2023/03/29 05:19:00;;;;;;;40.50;22.60;;;;;;;-128.00;-1.00;-1.00;102415;1257;1005554;-79
2023/03/29 05:21:27;;;;;;;25.80;14.10;;;;;;;-128.00;-1.00;-1.00;102461;1263;1004651;-80
2023/03/29 05:23:53;;;;;;;28.70;15.40;;;;;;;-128.00;-1.00;-1.00;102453;1257;1003903;-79
2023/03/29 05:26:21;;;;;;;40.70;17.20;;;;;;;-128.00;-1.00;-1.00;102435;1263;1004140;-79
2023/03/29 05:28:48;;;;;;;36.50;18.30;;;;;;;-128.00;-1.00;-1.00;102430;1263;1004800;-78
2023/03/29 05:31:15;;;;;;;55.30;25.30;;;;;;;-128.00;-1.00;-1.00;102418;1260;1006707;-78
2023/03/29 05:33:41;;;;;;;58.30;30.20;;;;;;;-128.00;-1.00;-1.00;102413;1263;1004998;-78
2023/03/29 05:36:14;;;;;;;77.30;35.50;;;;;;;-128.00;-1.00;-1.00;102215;1264;1005224;-80
2023/03/29 05:38:43;;;;;;;65.00;30.80;;;;;;;-128.00;-1.00;-1.00;102079;1257;1058979;-79
2023/03/29 05:41:10;;;;;;;60.00;31.40;;;;;;;-128.00;-1.00;-1.00;102421;1263;1047197;-79
2023/03/29 05:43:36;;;;;;;56.50;30.40;;;;;;;-128.00;-1.00;-1.00;102394;1262;1004569;-80
2023/03/29 05:46:04;;;;;;;40.80;18.10;;;;;;;-128.00;-1.00;-1.00;102454;1257;1004951;-80
2023/03/29 05:48:31;;;;;;;48.10;22.30;;;;;;;-128.00;-1.00;-1.00;102480;1261;1004649;-78
2023/03/29 05:50:57;;;;;;;46.10;25.90;;;;;;;-128.00;-1.00;-1.00;102402;1257;1004978;-80
2023/03/29 05:53:24;;;;;;;36.00;19.20;;;;;;;-128.00;-1.00;-1.00;102209;1263;1005093;-78
2023/03/29 05:55:51;;;;;;;53.00;27.50;;;;;;;-128.00;-1.00;-1.00;102264;1258;1004967;-80
2023/03/29 05:58:17;;;;;;;54.00;25.30;;;;;;;-128.00;-1.00;-1.00;102413;1261;1004153;-79
2023/03/29 06:00:44;;;;;;;69.00;28.40;;;;;;;-128.00;-1.00;-1.00;102400;1263;1003685;-80
2023/03/29 06:03:19;;;;;;;44.10;22.30;;;;;;;-128.00;-1.00;-1.00;102421;1262;1004870;-80
2023/03/29 06:05:47;;;;;;;53.30;27.30;;;;;;;-128.00;-1.00;-1.00;102403;1257;1048681;-78
2023/03/29 06:08:16;;;;;;;38.70;22.50;;;;;;;-128.00;-1.00;-1.00;102798;1263;1004416;-78
2023/03/29 06:10:42;;;;;;;54.20;26.10;;;;;;;-128.00;-1.00;-1.00;102512;1264;1064395;-80
2023/03/29 06:13:09;;;;;;;46.70;22.40;;;;;;;-128.00;-1.00;-1.00;102570;1260;1004583;-78
2023/03/29 06:15:36;;;;;;;49.80;26.20;;;;;;;-128.00;-1.00;-1.00;102554;1262;1003563;-78
2023/03/29 06:18:02;;;;;;;47.70;25.40;;;;;;;-128.00;-1.00;-1.00;102547;1258;1003823;-80
2023/03/29 06:20:29;;;;;;;30.80;16.30;;;;;;;-128.00;-1.00;-1.00;102538;1261;1005160;-78
2023/03/29 06:22:55;;;;;;;42.60;25.20;;;;;;;-128.00;-1.00;-1.00;102352;1263;1004615;-79
2023/03/29 06:25:22;;;;;;;41.20;20.50;;;;;;;-128.00;-1.00;-1.00;102538;1260;1004428;-78
2023/03/29 06:27:48;;;;;;;43.10;23.00;;;;;;;-128.00;-1.00;-1.00;102764;1261;1004620;-79
2023/03/29 06:30:15;;;;;;;43.50;21.80;;;;;;;-128.00;-1.00;-1.00;102526;1257;1005255;-80
2023/03/29 06:32:41;;;;;;;25.40;13.70;;;;;;;-128.00;-1.00;-1.00;102422;1268;1005316;-78
2023/03/29 06:35:08;;;;;;;37.00;19.70;;;;;;;-128.00;-1.00;-1.00;102470;1257;1004328;-80
2023/03/29 06:37:35;;;;;;;35.40;20.60;;;;;;;-128.00;-1.00;-1.00;102835;1257;1005623;-80
2023/03/29 06:40:04;;;;;;;45.70;22.80;;;;;;;-128.00;-1.00;-1.00;102911;1257;1004730;-80
2023/03/29 06:42:31;;;;;;;55.50;26.70;;;;;;;-128.00;-1.00;-1.00;102596;1257;1049978;-80
2023/03/29 06:44:58;;;;;;;22.40;10.50;;;;;;;-128.00;-1.00;-1.00;102620;1257;1003946;-78
2023/03/29 06:47:29;;;;;;;22.90;13.10;;;;;;;-128.00;-1.00;-1.00;103052;1261;1005859;-80
2023/03/29 06:49:56;;;;;;;29.00;15.00;;;;;;;-128.00;-1.00;-1.00;102923;1257;1062833;-80
2023/03/29 06:52:22;;;;;;;38.00;19.70;;;;;;;-128.00;-1.00;-1.00;102774;1260;1005534;-80
2023/03/29 06:54:49;;;;;;;48.30;21.00;;;;;;;-128.00;-1.00;-1.00;102753;1257;1006338;-78
2023/03/29 06:57:16;;;;;;;64.30;32.80;;;;;;;-128.00;-1.00;-1.00;102632;1261;1003527;-80
2023/03/29 06:59:42;;;;;;;131.10;64.70;;;;;;;-128.00;-1.00;-1.00;103893;1257;1004360;-76
2023/03/29 07:02:11;;;;;;;124.10;68.50;;;;;;;-128.00;-1.00;-1.00;104133;1258;1004003;-76
2023/03/29 07:04:38;;;;;;;141.30;71.50;;;;;;;-128.00;-1.00;-1.00;102442;1258;1004778;-78
2023/03/29 07:07:06;;;;;;;46.00;26.10;;;;;;;-128.00;-1.00;-1.00;102533;1258;1005742;-76
2023/03/29 07:09:34;;;;;;;59.40;33.30;;;;;;;-128.00;-1.00;-1.00;102559;1258;1004828;-76
2023/03/29 07:12:01;;;;;;;46.10;28.30;;;;;;;-128.00;-1.00;-1.00;102572;1266;1004286;-77
2023/03/29 07:14:28;;;;;;;37.50;22.00;;;;;;;-128.00;-1.00;-1.00;102611;1260;1005124;-80
2023/03/29 07:16:55;;;;;;;33.70;20.70;;;;;;;-128.00;-1.00;-1.00;102613;1257;1003540;-77
2023/03/29 07:19:23;;;;;;;23.60;14.60;;;;;;;-128.00;-1.00;-1.00;102650;1257;1004527;-80
2023/03/29 07:21:53;;;;;;;37.80;22.80;;;;;;;-128.00;-1.00;-1.00;102527;1256;1004986;-78
2023/03/29 07:24:20;;;;;;;37.90;19.20;;;;;;;-128.00;-1.00;-1.00;102517;1258;1062830;-78
2023/03/29 07:26:47;;;;;;;35.40;19.30;;;;;;;-128.00;-1.00;-1.00;102607;1258;1004331;-80
2023/03/29 07:29:15;;;;;;;32.70;20.20;;;;;;;-128.00;-1.00;-1.00;102658;1257;1003606;-80
2023/03/29 07:31:42;;;;;;;29.90;15.90;;;;;;;-128.00;-1.00;-1.00;102629;1259;1005475;-78
2023/03/29 07:34:09;;;;;;;26.30;17.30;;;;;;;-128.00;-1.00;-1.00;102609;1260;1005042;-81
2023/03/29 07:36:37;;;;;;;34.80;19.60;;;;;;;-128.00;-1.00;-1.00;102761;1267;1006268;-80
2023/03/29 07:39:04;;;;;;;34.90;19.70;;;;;;;-128.00;-1.00;-1.00;102798;1260;1004251;-78
2023/03/29 07:41:31;;;;;;;42.90;23.60;;;;;;;-128.00;-1.00;-1.00;102684;1257;1004259;-80
2023/03/29 07:44:03;;;;;;;31.60;19.30;;;;;;;-128.00;-1.00;-1.00;102652;1258;1004117;-78
2023/03/29 07:46:30;;;;;;;45.10;26.10;;;;;;;-128.00;-1.00;-1.00;102643;1257;1046992;-81
2023/03/29 07:48:56;;;;;;;43.00;25.90;;;;;;;-128.00;-1.00;-1.00;102783;1257;1003969;-80
2023/03/29 07:51:22;;;;;;;38.70;23.80;;;;;;;-128.00;-1.00;-1.00;102651;1260;1004843;-78
2023/03/29 07:53:49;;;;;;;38.50;21.40;;;;;;;-128.00;-1.00;-1.00;102598;1257;1004124;-79
2023/03/29 07:56:15;;;;;;;61.90;36.20;;;;;;;-128.00;-1.00;-1.00;102778;1260;1004804;-80
2023/03/29 07:58:42;;;;;;;64.60;34.90;;;;;;;-128.00;-1.00;-1.00;102695;1260;1003894;-80
2023/03/29 08:01:08;;;;;;;19.30;13.10;;;;;;;-128.00;-1.00;-1.00;102763;1258;1004233;-80
2023/03/29 08:03:35;;;;;;;78.80;47.50;;;;;;;-128.00;-1.00;-1.00;102656;1257;1003982;-77
2023/03/29 08:06:01;;;;;;;46.60;28.50;;;;;;;-128.00;-1.00;-1.00;102582;1258;1004824;-79
2023/03/29 08:08:28;;;;;;;38.70;23.00;;;;;;;-128.00;-1.00;-1.00;102678;1258;1005032;-77
2023/03/29 08:10:55;;;;;;;36.60;20.60;;;;;;;-128.00;-1.00;-1.00;102601;1257;1005192;-78
2023/03/29 08:13:21;;;;;;;21.00;14.80;;;;;;;-128.00;-1.00;-1.00;102497;1257;1004312;-77
2023/03/29 08:15:49;;;;;;;16.00;8.80;;;;;;;-128.00;-1.00;-1.00;102565;1257;1006409;-77
2023/03/29 08:18:15;;;;;;;6.90;5.30;;;;;;;-128.00;-1.00;-1.00;103243;1256;1005942;-79
2023/03/29 08:20:42;;;;;;;8.90;4.00;;;;;;;-128.00;-1.00;-1.00;102499;1258;1004321;-80
2023/03/29 08:23:08;;;;;;;4.30;3.10;;;;;;;-128.00;-1.00;-1.00;102358;1258;1005017;-77
2023/03/29 08:25:35;;;;;;;6.70;3.20;;;;;;;-128.00;-1.00;-1.00;102446;1260;1003444;-79
2023/03/29 08:28:02;;;;;;;4.80;2.10;;;;;;;-128.00;-1.00;-1.00;102548;1257;1005489;-80
2023/03/29 08:30:28;;;;;;;3.30;2.00;;;;;;;-128.00;-1.00;-1.00;102563;1257;1004802;-78
2023/03/29 08:32:55;;;;;;;2.90;2.30;;;;;;;-128.00;-1.00;-1.00;102497;1260;1004440;-77
2023/03/29 08:35:21;;;;;;;3.90;2.90;;;;;;;-128.00;-1.00;-1.00;102478;1257;1006195;-78
2023/03/29 08:37:48;;;;;;;6.60;3.90;;;;;;;-128.00;-1.00;-1.00;102534;1256;1005724;-80
2023/03/29 08:40:18;;;;;;;5.80;3.90;;;;;;;-128.00;-1.00;-1.00;102398;1257;1004626;-77
2023/03/29 08:43:01;;;;;;;7.90;5.50;;;;;;;-128.00;-1.00;-1.00;102353;1257;1058698;-80
2023/03/29 08:45:34;;;;;;;5.80;3.90;;;;;;;-128.00;-1.00;-1.00;102383;1263;1048216;-78
2023/03/29 08:48:07;;;;;;;6.00;2.50;;;;;;;-128.00;-1.00;-1.00;102394;1260;1050122;-80
2023/03/29 08:50:39;;;;;;;5.60;4.50;;;;;;;-128.00;-1.00;-1.00;102505;1257;1063963;-78
2023/03/29 08:53:15;;;;;;;4.20;2.60;;;;;;;-128.00;-1.00;-1.00;102356;1257;1061419;-80
2023/03/29 08:55:42;;;;;;;3.70;2.40;;;;;;;-128.00;-1.00;-1.00;102656;1257;1059540;-78
2023/03/29 08:58:15;;;;;;;4.30;2.30;;;;;;;-128.00;-1.00;-1.00;102484;1260;1005489;-80
2023/03/29 09:00:47;;;;;;;4.50;2.50;;;;;;;-128.00;-1.00;-1.00;102463;1260;1049972;-78
2023/03/29 09:03:20;;;;;;;2.10;1.40;;;;;;;-128.00;-1.00;-1.00;102743;1256;1062914;-77
2023/03/29 09:05:49;;;;;;;2.20;1.30;;;;;;;-128.00;-1.00;-1.00;102647;1257;1058245;-80
2023/03/29 09:08:16;;;;;;;3.20;1.60;;;;;;;-128.00;-1.00;-1.00;102596;1260;1005965;-77
2023/03/29 09:11:04;;;;;;;2.50;1.30;;;;;;;-128.00;-1.00;-1.00;102296;1256;1004161;-77
2023/03/29 09:13:39;;;;;;;6.60;3.10;;;;;;;-128.00;-1.00;-1.00;102524;1256;1047423;-77
2023/03/29 09:16:30;;;;;;;4.80;2.00;;;;;;;-128.00;-1.00;-1.00;102290;1257;1065080;-77
2023/03/29 09:19:19;;;;;;;4.10;2.00;;;;;;;-128.00;-1.00;-1.00;102065;1257;1057607;-78
2023/03/29 09:22:12;;;;;;;2.30;1.30;;;;;;;-128.00;-1.00;-1.00;102315;1257;1062044;-79
2023/03/29 09:24:46;;;;;;;11.90;2.50;;;;;;;-128.00;-1.00;-1.00;102644;1257;1045276;-79
2023/03/29 09:27:14;;;;;;;3.30;1.80;;;;;;;-128.00;-1.00;-1.00;102365;1262;1046648;-77
2023/03/29 09:30:03;;;;;;;4.40;1.80;;;;;;;-128.00;-1.00;-1.00;102401;1257;1005137;-77
2023/03/29 09:32:33;;;;;;;3.90;1.60;;;;;;;-128.00;-1.00;-1.00;102491;1256;1061082;-79
2023/03/29 09:34:59;;;;;;;2.50;1.80;;;;;;;-128.00;-1.00;-1.00;102590;1257;1060551;-79
2023/03/29 09:37:31;;;;;;;6.40;2.00;;;;;;;-128.00;-1.00;-1.00;102527;1257;1005499;-77
2023/03/29 09:39:58;;;;;;;5.70;2.00;;;;;;;-128.00;-1.00;-1.00;102513;1257;1048964;-76
2023/03/29 09:42:26;;;;;;;4.30;2.50;;;;;;;-128.00;-1.00;-1.00;102210;1258;1004017;-77
2023/03/29 09:44:56;;;;;;;3.70;2.40;;;;;;;-128.00;-1.00;-1.00;102380;1259;1005403;-79
2023/03/29 09:47:25;;;;;;;39.40;15.60;;;;;;;-128.00;-1.00;-1.00;102261;1257;1062756;-79
2023/03/29 09:49:55;;;;;;;8.40;3.60;;;;;;;-128.00;-1.00;-1.00;102384;1257;1043409;-79
2023/03/29 09:52:22;;;;;;;12.30;5.40;;;;;;;-128.00;-1.00;-1.00;103064;1257;1048112;-77
2023/03/29 09:54:49;;;;;;;8.60;3.50;;;;;;;-128.00;-1.00;-1.00;102327;1256;1004668;-81
2023/03/29 09:57:16;;;;;;;18.60;8.60;;;;;;;-128.00;-1.00;-1.00;102341;1257;1004285;-79
2023/03/29 09:59:43;;;;;;;17.60;6.90;;;;;;;-128.00;-1.00;-1.00;102440;1258;1003531;-79
2023/03/29 10:02:11;;;;;;;7.10;2.80;;;;;;;-128.00;-1.00;-1.00;102416;1257;1004386;-81
2023/03/29 10:04:40;;;;;;;3.00;1.60;;;;;;;-128.00;-1.00;-1.00;102490;1256;1046212;-80
2023/03/29 10:07:08;;;;;;;5.90;2.80;;;;;;;-128.00;-1.00;-1.00;102542;1257;1062631;-81
2023/03/29 10:09:34;;;;;;;5.30;3.20;;;;;;;-128.00;-1.00;-1.00;103157;1257;1003838;-78
2023/03/29 10:12:04;;;;;;;8.00;3.30;;;;;;;-128.00;-1.00;-1.00;102338;1256;1004349;-80
2023/03/29 10:14:35;;;;;;;4.70;2.50;;;;;;;-128.00;-1.00;-1.00;102300;1257;1044299;-80
2023/03/29 10:17:14;;;;;;;4.50;2.40;;;;;;;-128.00;-1.00;-1.00;102665;1257;1049163;-80
2023/03/29 10:19:51;;;;;;;7.60;4.50;;;;;;;-128.00;-1.00;-1.00;102803;1263;1062720;-80
2023/03/29 10:22:31;;;;;;;3.90;2.10;;;;;;;-128.00;-1.00;-1.00;102502;1257;1058246;-78
2023/03/29 10:24:57;;;;;;;6.40;3.10;;;;;;;-128.00;-1.00;-1.00;102310;1264;1059024;-80
2023/03/29 10:27:26;;;;;;;6.50;2.90;;;;;;;-128.00;-1.00;-1.00;102549;1260;1004222;-80
2023/03/29 10:29:53;;;;;;;7.60;3.60;;;;;;;-128.00;-1.00;-1.00;102468;1258;1004471;-80
2023/03/29 10:32:32;;;;;;;8.00;3.20;;;;;;;-128.00;-1.00;-1.00;102495;1257;1004355;-78
2023/03/29 10:35:21;;;;;;;4.90;3.60;;;;;;;-128.00;-1.00;-1.00;102887;1258;1057842;-78
2023/03/29 10:37:49;;;;;;;9.60;3.50;;;;;;;-128.00;-1.00;-1.00;102519;1257;1061014;-79
2023/03/29 10:40:25;;;;;;;6.60;3.40;;;;;;;-128.00;-1.00;-1.00;102325;1259;1006619;-80
2023/03/29 10:42:56;;;;;;;5.40;2.60;;;;;;;-128.00;-1.00;-1.00;102450;1257;1049514;-78
2023/03/29 10:45:24;;;;;;;8.50;3.10;;;;;;;-128.00;-1.00;-1.00;102418;1263;1062979;-79
2023/03/29 10:47:53;;;;;;;6.30;3.10;;;;;;;-128.00;-1.00;-1.00;102889;1272;1004154;-78
2023/03/29 10:50:20;;;;;;;4.70;2.30;;;;;;;-128.00;-1.00;-1.00;103004;1260;1059830;-80
2023/03/29 10:52:49;;;;;;;4.40;2.50;;;;;;;-128.00;-1.00;-1.00;103007;1268;1004470;-78
2023/03/29 10:55:15;;;;;;;8.80;2.60;;;;;;;-128.00;-1.00;-1.00;102818;1259;1049858;-78
2023/03/29 10:57:55;;;;;;;4.70;2.50;;;;;;;-128.00;-1.00;-1.00;102895;1261;1004109;-77
2023/03/29 11:00:50;;;;;;;6.10;2.80;;;;;;;-128.00;-1.00;-1.00;102608;1257;1059012;-80
2023/03/29 11:03:42;;;;;;;5.50;2.20;;;;;;;-128.00;-1.00;-1.00;102476;1256;1058778;-80
2023/03/29 11:06:18;;;;;;;5.10;2.60;;;;;;;-128.00;-1.00;-1.00;102380;1256;1043513;-77
2023/03/29 11:09:20;;;;;;;10.50;3.50;;;;;;;-128.00;-1.00;-1.00;102776;1257;1046741;-80
2023/03/29 11:12:19;;;;;;;4.70;1.80;;;;;;;-128.00;-1.00;-1.00;102527;1257;1062862;-80
2023/03/29 11:15:23;;;;;;;6.60;2.30;;;;;;;-128.00;-1.00;-1.00;102661;1260;1058059;-77
2023/03/29 11:18:02;;;;;;;4.50;2.20;;;;;;;-128.00;-1.00;-1.00;102792;1260;1060567;-80